sensor_id;sensor_type;location;lat;lon;timestamp;P1;durP1;ratioP1;P2;durP2;ratioP2
56788;SDS011;42657;51.650;17.780;2022-11-11T00:02:56;37.90;;;14.40;;
56788;SDS011;42657;51.650;17.780;2022-11-11T00:06:01;46.10;;;14.00;;
56788;SDS011;42657;51.650;17.780;2022-11-11T00:09:09;53.30;;;16.50;;
56788;SDS011;42657;51.650;17.780;2022-11-11T00:12:10;63.80;;;17.10;;
56788;SDS011;42657;51.650;17.780;2022-11-11T00:15:12;39.70;;;15.10;;
56788;SDS011;42657;51.650;17.780;2022-11-11T00:18:13;36.00;;;15.40;;
56788;SDS011;42657;51.650;17.780;2022-11-11T00:21:15;33.40;;;14.10;;
56788;SDS011;42657;51.650;17.780;2022-11-11T00:24:21;29.30;;;12.20;;
56788;SDS011;42657;51.650;17.780;2022-11-11T00:27:24;24.90;;;11.90;;
56788;SDS011;42657;51.650;17.780;2022-11-11T00:30:25;25.70;;;12.20;;
56788;SDS011;42657;51.650;17.780;2022-11-11T00:33:27;22.40;;;10.30;;
56788;SDS011;42657;51.650;17.780;2022-11-11T00:36:28;23.40;;;11.70;;
56788;SDS011;42657;51.650;17.780;2022-11-11T00:39:30;26.90;;;12.20;;
56788;SDS011;42657;51.650;17.780;2022-11-11T00:42:32;25.00;;;13.00;;
56788;SDS011;42657;51.650;17.780;2022-11-11T00:45:34;18.90;;;10.50;;
56788;SDS011;42657;51.650;17.780;2022-11-11T00:48:35;18.30;;;9.60;;
56788;SDS011;42657;51.650;17.780;2022-11-11T00:51:37;20.40;;;10.10;;
56788;SDS011;42657;51.650;17.780;2022-11-11T00:54:39;26.30;;;11.70;;
56788;SDS011;42657;51.650;17.780;2022-11-11T00:57:40;24.10;;;11.40;;
56788;SDS011;42657;51.650;17.780;2022-11-11T01:00:42;24.80;;;11.70;;
56788;SDS011;42657;51.650;17.780;2022-11-11T01:03:44;19.30;;;10.70;;
56788;SDS011;42657;51.650;17.780;2022-11-11T01:06:46;20.20;;;9.60;;
56788;SDS011;42657;51.650;17.780;2022-11-11T01:09:47;19.60;;;9.60;;
56788;SDS011;42657;51.650;17.780;2022-11-11T01:12:52;23.80;;;10.80;;
56788;SDS011;42657;51.650;17.780;2022-11-11T01:19:01;20.20;;;10.00;;
56788;SDS011;42657;51.650;17.780;2022-11-11T01:22:02;17.10;;;8.80;;
56788;SDS011;42657;51.650;17.780;2022-11-11T01:25:04;23.20;;;11.00;;
56788;SDS011;42657;51.650;17.780;2022-11-11T01:28:06;22.50;;;11.70;;
56788;SDS011;42657;51.650;17.780;2022-11-11T01:31:10;25.10;;;12.40;;
56788;SDS011;42657;51.650;17.780;2022-11-11T01:34:13;19.00;;;9.80;;
56788;SDS011;42657;51.650;17.780;2022-11-11T01:37:15;18.80;;;9.60;;
56788;SDS011;42657;51.650;17.780;2022-11-11T01:40:16;18.10;;;9.70;;
56788;SDS011;42657;51.650;17.780;2022-11-11T01:43:20;20.30;;;9.50;;
56788;SDS011;42657;51.650;17.780;2022-11-11T01:46:45;22.40;;;9.80;;
56788;SDS011;42657;51.650;17.780;2022-11-11T01:52:57;19.30;;;10.10;;
56788;SDS011;42657;51.650;17.780;2022-11-11T01:55:59;18.90;;;10.20;;
56788;SDS011;42657;51.650;17.780;2022-11-11T01:59:04;17.60;;;8.90;;
56788;SDS011;42657;51.650;17.780;2022-11-11T02:02:23;20.20;;;9.00;;
56788;SDS011;42657;51.650;17.780;2022-11-11T02:05:40;23.30;;;10.20;;
56788;SDS011;42657;51.650;17.780;2022-11-11T02:08:41;21.50;;;10.30;;
56788;SDS011;42657;51.650;17.780;2022-11-11T02:11:44;20.60;;;9.00;;
56788;SDS011;42657;51.650;17.780;2022-11-11T02:14:46;20.10;;;9.00;;
56788;SDS011;42657;51.650;17.780;2022-11-11T02:17:52;18.20;;;9.10;;
56788;SDS011;42657;51.650;17.780;2022-11-11T02:20:54;14.00;;;8.10;;
56788;SDS011;42657;51.650;17.780;2022-11-11T02:24:05;13.50;;;7.50;;
56788;SDS011;42657;51.650;17.780;2022-11-11T02:27:11;21.50;;;9.20;;
56788;SDS011;42657;51.650;17.780;2022-11-11T02:30:16;21.50;;;8.50;;
56788;SDS011;42657;51.650;17.780;2022-11-11T02:33:18;15.50;;;8.80;;
56788;SDS011;42657;51.650;17.780;2022-11-11T02:36:23;23.50;;;8.50;;
56788;SDS011;42657;51.650;17.780;2022-11-11T02:39:25;21.40;;;8.80;;
56788;SDS011;42657;51.650;17.780;2022-11-11T02:42:27;16.20;;;8.00;;
56788;SDS011;42657;51.650;17.780;2022-11-11T02:45:29;17.30;;;8.00;;
56788;SDS011;42657;51.650;17.780;2022-11-11T02:48:31;22.60;;;9.30;;
56788;SDS011;42657;51.650;17.780;2022-11-11T02:51:32;14.70;;;7.60;;
56788;SDS011;42657;51.650;17.780;2022-11-11T02:54:34;18.60;;;8.40;;
56788;SDS011;42657;51.650;17.780;2022-11-11T02:57:35;15.40;;;7.40;;
56788;SDS011;42657;51.650;17.780;2022-11-11T03:00:37;18.80;;;9.40;;
56788;SDS011;42657;51.650;17.780;2022-11-11T03:03:39;19.60;;;8.70;;
56788;SDS011;42657;51.650;17.780;2022-11-11T03:06:40;18.00;;;9.00;;
56788;SDS011;42657;51.650;17.780;2022-11-11T03:09:42;24.70;;;9.80;;
56788;SDS011;42657;51.650;17.780;2022-11-11T03:12:43;13.50;;;7.20;;
56788;SDS011;42657;51.650;17.780;2022-11-11T03:15:45;12.50;;;7.50;;
56788;SDS011;42657;51.650;17.780;2022-11-11T03:18:46;19.10;;;8.50;;
56788;SDS011;42657;51.650;17.780;2022-11-11T03:21:48;18.40;;;8.60;;
56788;SDS011;42657;51.650;17.780;2022-11-11T03:24:49;13.50;;;8.10;;
56788;SDS011;42657;51.650;17.780;2022-11-11T03:27:51;15.70;;;7.80;;
56788;SDS011;42657;51.650;17.780;2022-11-11T03:30:53;14.10;;;7.10;;
56788;SDS011;42657;51.650;17.780;2022-11-11T03:33:54;14.00;;;7.70;;
56788;SDS011;42657;51.650;17.780;2022-11-11T03:36:56;17.10;;;7.10;;
56788;SDS011;42657;51.650;17.780;2022-11-11T03:39:57;14.80;;;7.80;;
56788;SDS011;42657;51.650;17.780;2022-11-11T03:42:59;15.70;;;7.90;;
56788;SDS011;42657;51.650;17.780;2022-11-11T03:46:01;16.80;;;8.10;;
56788;SDS011;42657;51.650;17.780;2022-11-11T03:49:04;14.80;;;7.70;;
56788;SDS011;42657;51.650;17.780;2022-11-11T03:52:05;13.80;;;7.40;;
56788;SDS011;42657;51.650;17.780;2022-11-11T03:55:07;16.00;;;7.50;;
56788;SDS011;42657;51.650;17.780;2022-11-11T03:58:09;12.80;;;7.30;;
56788;SDS011;42657;51.650;17.780;2022-11-11T04:01:10;19.40;;;7.80;;
56788;SDS011;42657;51.650;17.780;2022-11-11T04:04:12;16.30;;;7.20;;
56788;SDS011;42657;51.650;17.780;2022-11-11T04:07:14;12.40;;;7.00;;
56788;SDS011;42657;51.650;17.780;2022-11-11T04:10:15;15.80;;;6.80;;
56788;SDS011;42657;51.650;17.780;2022-11-11T04:13:17;13.40;;;6.80;;
56788;SDS011;42657;51.650;17.780;2022-11-11T04:16:18;14.00;;;6.40;;
56788;SDS011;42657;51.650;17.780;2022-11-11T04:19:20;14.90;;;6.90;;
56788;SDS011;42657;51.650;17.780;2022-11-11T04:22:22;16.00;;;7.30;;
56788;SDS011;42657;51.650;17.780;2022-11-11T04:25:23;19.40;;;6.90;;
56788;SDS011;42657;51.650;17.780;2022-11-11T04:28:24;13.90;;;6.60;;
56788;SDS011;42657;51.650;17.780;2022-11-11T04:31:26;14.00;;;6.20;;
56788;SDS011;42657;51.650;17.780;2022-11-11T04:34:27;14.20;;;7.10;;
56788;SDS011;42657;51.650;17.780;2022-11-11T04:37:30;13.50;;;6.30;;
56788;SDS011;42657;51.650;17.780;2022-11-11T04:40:33;13.60;;;6.20;;
56788;SDS011;42657;51.650;17.780;2022-11-11T04:43:35;15.60;;;5.60;;
56788;SDS011;42657;51.650;17.780;2022-11-11T04:46:36;15.50;;;6.50;;
56788;SDS011;42657;51.650;17.780;2022-11-11T04:49:37;15.60;;;5.80;;
56788;SDS011;42657;51.650;17.780;2022-11-11T04:52:39;13.90;;;6.60;;
56788;SDS011;42657;51.650;17.780;2022-11-11T04:55:41;11.70;;;6.00;;
56788;SDS011;42657;51.650;17.780;2022-11-11T04:58:44;12.70;;;6.80;;
56788;SDS011;42657;51.650;17.780;2022-11-11T05:01:45;14.50;;;7.30;;
56788;SDS011;42657;51.650;17.780;2022-11-11T05:04:47;10.60;;;6.00;;
56788;SDS011;42657;51.650;17.780;2022-11-11T05:07:48;16.10;;;6.70;;
56788;SDS011;42657;51.650;17.780;2022-11-11T05:10:50;14.90;;;6.80;;
56788;SDS011;42657;51.650;17.780;2022-11-11T05:13:52;14.80;;;5.70;;
56788;SDS011;42657;51.650;17.780;2022-11-11T05:16:56;14.60;;;7.80;;
56788;SDS011;42657;51.650;17.780;2022-11-11T05:19:58;32.00;;;17.90;;
56788;SDS011;42657;51.650;17.780;2022-11-11T05:23:00;23.60;;;13.40;;
56788;SDS011;42657;51.650;17.780;2022-11-11T05:26:01;17.00;;;7.20;;
56788;SDS011;42657;51.650;17.780;2022-11-11T05:29:03;14.80;;;6.00;;
56788;SDS011;42657;51.650;17.780;2022-11-11T05:32:06;10.60;;;5.60;;
56788;SDS011;42657;51.650;17.780;2022-11-11T05:35:08;10.60;;;5.10;;
56788;SDS011;42657;51.650;17.780;2022-11-11T05:38:11;13.30;;;6.00;;
56788;SDS011;42657;51.650;17.780;2022-11-11T05:41:12;11.90;;;5.50;;
56788;SDS011;42657;51.650;17.780;2022-11-11T05:44:14;11.60;;;4.70;;
56788;SDS011;42657;51.650;17.780;2022-11-11T05:47:15;13.80;;;5.00;;
56788;SDS011;42657;51.650;17.780;2022-11-11T05:50:16;12.80;;;5.40;;
56788;SDS011;42657;51.650;17.780;2022-11-11T05:53:18;13.40;;;5.50;;
56788;SDS011;42657;51.650;17.780;2022-11-11T05:56:20;10.00;;;5.10;;
56788;SDS011;42657;51.650;17.780;2022-11-11T05:59:21;11.00;;;5.80;;
56788;SDS011;42657;51.650;17.780;2022-11-11T06:02:23;9.60;;;5.40;;
56788;SDS011;42657;51.650;17.780;2022-11-11T06:05:24;11.00;;;6.50;;
56788;SDS011;42657;51.650;17.780;2022-11-11T06:08:26;11.60;;;6.70;;
56788;SDS011;42657;51.650;17.780;2022-11-11T06:11:27;12.80;;;6.40;;
56788;SDS011;42657;51.650;17.780;2022-11-11T06:14:30;14.90;;;6.40;;
56788;SDS011;42657;51.650;17.780;2022-11-11T06:17:32;13.50;;;6.70;;
56788;SDS011;42657;51.650;17.780;2022-11-11T06:20:34;18.10;;;9.00;;
56788;SDS011;42657;51.650;17.780;2022-11-11T06:23:35;14.00;;;6.90;;
56788;SDS011;42657;51.650;17.780;2022-11-11T06:26:37;14.50;;;6.20;;
56788;SDS011;42657;51.650;17.780;2022-11-11T06:29:39;13.50;;;5.20;;
56788;SDS011;42657;51.650;17.780;2022-11-11T06:32:40;11.20;;;5.40;;
56788;SDS011;42657;51.650;17.780;2022-11-11T06:35:42;15.00;;;5.30;;
56788;SDS011;42657;51.650;17.780;2022-11-11T06:38:44;13.70;;;5.20;;
56788;SDS011;42657;51.650;17.780;2022-11-11T06:41:46;15.40;;;5.40;;
56788;SDS011;42657;51.650;17.780;2022-11-11T06:44:48;12.60;;;6.70;;
56788;SDS011;42657;51.650;17.780;2022-11-11T06:47:49;12.70;;;6.60;;
56788;SDS011;42657;51.650;17.780;2022-11-11T06:50:51;14.20;;;6.10;;
56788;SDS011;42657;51.650;17.780;2022-11-11T06:53:53;21.30;;;6.30;;
56788;SDS011;42657;51.650;17.780;2022-11-11T06:56:55;16.90;;;7.10;;
56788;SDS011;42657;51.650;17.780;2022-11-11T06:59:56;10.80;;;5.40;;
56788;SDS011;42657;51.650;17.780;2022-11-11T07:02:58;12.60;;;5.20;;
56788;SDS011;42657;51.650;17.780;2022-11-11T07:06:00;12.00;;;5.10;;
56788;SDS011;42657;51.650;17.780;2022-11-11T07:09:02;15.10;;;5.30;;
56788;SDS011;42657;51.650;17.780;2022-11-11T07:12:04;13.60;;;5.80;;
56788;SDS011;42657;51.650;17.780;2022-11-11T07:15:06;12.70;;;5.60;;
56788;SDS011;42657;51.650;17.780;2022-11-11T07:18:08;10.90;;;5.40;;
56788;SDS011;42657;51.650;17.780;2022-11-11T07:21:11;12.30;;;4.80;;
56788;SDS011;42657;51.650;17.780;2022-11-11T07:24:12;9.20;;;4.50;;
56788;SDS011;42657;51.650;17.780;2022-11-11T07:27:14;12.80;;;5.50;;
56788;SDS011;42657;51.650;17.780;2022-11-11T07:30:15;10.10;;;4.80;;
56788;SDS011;42657;51.650;17.780;2022-11-11T07:33:17;14.20;;;5.80;;
56788;SDS011;42657;51.650;17.780;2022-11-11T07:36:18;10.10;;;5.00;;
56788;SDS011;42657;51.650;17.780;2022-11-11T07:39:20;13.10;;;5.40;;
56788;SDS011;42657;51.650;17.780;2022-11-11T07:42:21;18.60;;;8.20;;
56788;SDS011;42657;51.650;17.780;2022-11-11T07:45:23;21.70;;;11.40;;
56788;SDS011;42657;51.650;17.780;2022-11-11T07:48:25;22.50;;;9.80;;
56788;SDS011;42657;51.650;17.780;2022-11-11T07:51:26;19.40;;;9.20;;
56788;SDS011;42657;51.650;17.780;2022-11-11T07:54:28;16.40;;;7.30;;
56788;SDS011;42657;51.650;17.780;2022-11-11T07:57:29;14.20;;;7.90;;
56788;SDS011;42657;51.650;17.780;2022-11-11T08:00:31;14.60;;;7.10;;
56788;SDS011;42657;51.650;17.780;2022-11-11T08:03:32;15.90;;;7.20;;
56788;SDS011;42657;51.650;17.780;2022-11-11T08:06:34;17.40;;;7.20;;
56788;SDS011;42657;51.650;17.780;2022-11-11T08:09:35;15.60;;;6.90;;
56788;SDS011;42657;51.650;17.780;2022-11-11T08:12:37;15.70;;;8.20;;
56788;SDS011;42657;51.650;17.780;2022-11-11T08:15:38;18.40;;;8.30;;
56788;SDS011;42657;51.650;17.780;2022-11-11T08:18:40;17.30;;;7.30;;
56788;SDS011;42657;51.650;17.780;2022-11-11T08:21:43;13.10;;;6.60;;
56788;SDS011;42657;51.650;17.780;2022-11-11T08:24:45;17.40;;;7.80;;
56788;SDS011;42657;51.650;17.780;2022-11-11T08:27:46;13.90;;;7.50;;
56788;SDS011;42657;51.650;17.780;2022-11-11T08:30:48;13.20;;;7.60;;
56788;SDS011;42657;51.650;17.780;2022-11-11T08:33:50;12.10;;;7.30;;
56788;SDS011;42657;51.650;17.780;2022-11-11T08:36:51;16.40;;;7.10;;
56788;SDS011;42657;51.650;17.780;2022-11-11T08:39:53;15.90;;;7.40;;
56788;SDS011;42657;51.650;17.780;2022-11-11T08:42:55;17.20;;;7.70;;
56788;SDS011;42657;51.650;17.780;2022-11-11T08:46:01;14.60;;;7.10;;
56788;SDS011;42657;51.650;17.780;2022-11-11T08:49:04;14.70;;;6.10;;
56788;SDS011;42657;51.650;17.780;2022-11-11T08:52:05;19.10;;;7.50;;
56788;SDS011;42657;51.650;17.780;2022-11-11T08:55:07;16.10;;;7.40;;
56788;SDS011;42657;51.650;17.780;2022-11-11T08:58:09;19.00;;;7.90;;
56788;SDS011;42657;51.650;17.780;2022-11-11T09:01:11;26.40;;;10.00;;
56788;SDS011;42657;51.650;17.780;2022-11-11T09:04:14;18.70;;;9.30;;
56788;SDS011;42657;51.650;17.780;2022-11-11T09:07:15;18.40;;;8.40;;
56788;SDS011;42657;51.650;17.780;2022-11-11T09:10:17;20.00;;;8.00;;
56788;SDS011;42657;51.650;17.780;2022-11-11T09:13:19;15.30;;;7.20;;
56788;SDS011;42657;51.650;17.780;2022-11-11T09:16:20;17.10;;;6.90;;
56788;SDS011;42657;51.650;17.780;2022-11-11T09:19:21;16.40;;;7.20;;
56788;SDS011;42657;51.650;17.780;2022-11-11T09:22:23;13.60;;;6.40;;
56788;SDS011;42657;51.650;17.780;2022-11-11T09:25:24;13.80;;;5.90;;
56788;SDS011;42657;51.650;17.780;2022-11-11T09:28:26;16.90;;;6.40;;
56788;SDS011;42657;51.650;17.780;2022-11-11T09:31:27;14.90;;;6.00;;
56788;SDS011;42657;51.650;17.780;2022-11-11T09:34:29;11.40;;;4.40;;
56788;SDS011;42657;51.650;17.780;2022-11-11T09:37:31;12.90;;;5.60;;
56788;SDS011;42657;51.650;17.780;2022-11-11T09:40:34;17.50;;;6.30;;
56788;SDS011;42657;51.650;17.780;2022-11-11T09:43:56;13.00;;;5.20;;
56788;SDS011;42657;51.650;17.780;2022-11-11T09:50:12;8.90;;;3.40;;
56788;SDS011;42657;51.650;17.780;2022-11-11T09:56:29;7.70;;;3.10;;
56788;SDS011;42657;51.650;17.780;2022-11-11T09:59:37;8.10;;;3.20;;
56788;SDS011;42657;51.650;17.780;2022-11-11T10:02:48;8.70;;;4.30;;
56788;SDS011;42657;51.650;17.780;2022-11-11T10:05:56;23.60;;;8.70;;
56788;SDS011;42657;51.650;17.780;2022-11-11T10:09:14;14.20;;;4.90;;
56788;SDS011;42657;51.650;17.780;2022-11-11T10:12:20;13.90;;;6.60;;
56788;SDS011;42657;51.650;17.780;2022-11-11T10:15:29;13.80;;;5.00;;
56788;SDS011;42657;51.650;17.780;2022-11-11T10:21:52;15.30;;;4.60;;
56788;SDS011;42657;51.650;17.780;2022-11-11T11:07:49;8.00;;;3.70;;
56788;SDS011;42657;51.650;17.780;2022-11-11T11:10:57;13.40;;;4.90;;
56788;SDS011;42657;51.650;17.780;2022-11-11T11:14:07;8.50;;;3.80;;
56788;SDS011;42657;51.650;17.780;2022-11-11T11:17:19;12.30;;;5.00;;
56788;SDS011;42657;51.650;17.780;2022-11-11T11:20:26;9.00;;;4.20;;
56788;SDS011;42657;51.650;17.780;2022-11-11T11:23:34;7.50;;;3.70;;
56788;SDS011;42657;51.650;17.780;2022-11-11T11:29:47;11.30;;;4.90;;
56788;SDS011;42657;51.650;17.780;2022-11-11T11:32:56;12.50;;;5.90;;
56788;SDS011;42657;51.650;17.780;2022-11-11T11:36:02;10.70;;;5.40;;
56788;SDS011;42657;51.650;17.780;2022-11-11T11:39:30;15.50;;;6.10;;
56788;SDS011;42657;51.650;17.780;2022-11-11T11:42:33;11.50;;;4.40;;
56788;SDS011;42657;51.650;17.780;2022-11-11T11:45:37;10.20;;;4.50;;
56788;SDS011;42657;51.650;17.780;2022-11-11T11:59:31;10.10;;;4.20;;
56788;SDS011;42657;51.650;17.780;2022-11-11T12:03:04;14.90;;;5.30;;
56788;SDS011;42657;51.650;17.780;2022-11-11T12:10:23;10.20;;;4.80;;
56788;SDS011;42657;51.650;17.780;2022-11-11T12:17:00;16.00;;;5.30;;
56788;SDS011;42657;51.650;17.780;2022-11-11T12:20:15;15.30;;;5.70;;
56788;SDS011;42657;51.650;17.780;2022-11-11T12:23:30;11.80;;;5.20;;
56788;SDS011;42657;51.650;17.780;2022-11-11T12:29:42;13.90;;;5.80;;
56788;SDS011;42657;51.650;17.780;2022-11-11T12:39:57;11.00;;;4.40;;
56788;SDS011;42657;51.650;17.780;2022-11-11T12:53:01;11.20;;;5.10;;
56788;SDS011;42657;51.650;17.780;2022-11-11T12:56:24;10.70;;;4.30;;
56788;SDS011;42657;51.650;17.780;2022-11-11T13:06:41;14.00;;;6.40;;
56788;SDS011;42657;51.650;17.780;2022-11-11T13:09:50;12.40;;;6.10;;
56788;SDS011;42657;51.650;17.780;2022-11-11T13:16:30;13.70;;;6.30;;
56788;SDS011;42657;51.650;17.780;2022-11-11T13:19:33;15.10;;;5.30;;
56788;SDS011;42657;51.650;17.780;2022-11-11T13:22:39;11.90;;;5.50;;
56788;SDS011;42657;51.650;17.780;2022-11-11T13:25:45;11.80;;;5.60;;
56788;SDS011;42657;51.650;17.780;2022-11-11T13:28:49;16.80;;;5.90;;
56788;SDS011;42657;51.650;17.780;2022-11-11T13:31:58;13.00;;;6.20;;
56788;SDS011;42657;51.650;17.780;2022-11-11T13:35:09;11.70;;;5.60;;
56788;SDS011;42657;51.650;17.780;2022-11-11T13:38:27;11.80;;;5.30;;
56788;SDS011;42657;51.650;17.780;2022-11-11T13:41:50;10.60;;;6.70;;
56788;SDS011;42657;51.650;17.780;2022-11-11T13:44:54;13.20;;;6.00;;
56788;SDS011;42657;51.650;17.780;2022-11-11T13:48:00;14.90;;;5.50;;
56788;SDS011;42657;51.650;17.780;2022-11-11T13:54:33;14.90;;;6.40;;
56788;SDS011;42657;51.650;17.780;2022-11-11T13:57:48;18.50;;;7.60;;
56788;SDS011;42657;51.650;17.780;2022-11-11T14:00:59;20.60;;;7.60;;
56788;SDS011;42657;51.650;17.780;2022-11-11T14:04:07;22.30;;;8.20;;
56788;SDS011;42657;51.650;17.780;2022-11-11T14:07:32;20.30;;;7.40;;
56788;SDS011;42657;51.650;17.780;2022-11-11T14:10:55;21.90;;;9.20;;
56788;SDS011;42657;51.650;17.780;2022-11-11T14:17:32;24.90;;;8.80;;
56788;SDS011;42657;51.650;17.780;2022-11-11T14:20:39;25.10;;;9.60;;
56788;SDS011;42657;51.650;17.780;2022-11-11T14:23:42;24.40;;;9.30;;
56788;SDS011;42657;51.650;17.780;2022-11-11T14:26:44;27.50;;;9.90;;
56788;SDS011;42657;51.650;17.780;2022-11-11T14:29:58;21.90;;;10.50;;
56788;SDS011;42657;51.650;17.780;2022-11-11T14:36:41;34.70;;;10.10;;
56788;SDS011;42657;51.650;17.780;2022-11-11T14:39:51;30.00;;;15.50;;
56788;SDS011;42657;51.650;17.780;2022-11-11T14:42:54;25.50;;;12.20;;
56788;SDS011;42657;51.650;17.780;2022-11-11T14:45:59;24.60;;;12.20;;
56788;SDS011;42657;51.650;17.780;2022-11-11T14:49:02;30.30;;;16.20;;
56788;SDS011;42657;51.650;17.780;2022-11-11T14:52:04;26.10;;;9.80;;
56788;SDS011;42657;51.650;17.780;2022-11-11T14:58:24;23.30;;;10.30;;
56788;SDS011;42657;51.650;17.780;2022-11-11T15:01:33;23.00;;;10.20;;
56788;SDS011;42657;51.650;17.780;2022-11-11T15:04:35;20.00;;;11.10;;
56788;SDS011;42657;51.650;17.780;2022-11-11T15:07:58;23.70;;;12.40;;
56788;SDS011;42657;51.650;17.780;2022-11-11T15:14:46;30.20;;;13.90;;
56788;SDS011;42657;51.650;17.780;2022-11-11T15:18:18;38.80;;;17.40;;
56788;SDS011;42657;51.650;17.780;2022-11-11T15:22:06;48.10;;;18.60;;
56788;SDS011;42657;51.650;17.780;2022-11-11T15:28:14;58.00;;;18.50;;
56788;SDS011;42657;51.650;17.780;2022-11-11T15:32:01;66.20;;;20.00;;
56788;SDS011;42657;51.650;17.780;2022-11-11T15:38:31;69.90;;;20.90;;
56788;SDS011;42657;51.650;17.780;2022-11-11T15:41:37;50.90;;;16.80;;
56788;SDS011;42657;51.650;17.780;2022-11-11T15:44:43;41.80;;;15.10;;
56788;SDS011;42657;51.650;17.780;2022-11-11T15:47:45;47.60;;;16.80;;
56788;SDS011;42657;51.650;17.780;2022-11-11T15:50:49;55.10;;;19.10;;
56788;SDS011;42657;51.650;17.780;2022-11-11T15:53:51;60.00;;;22.50;;
56788;SDS011;42657;51.650;17.780;2022-11-11T15:56:52;60.50;;;21.60;;
56788;SDS011;42657;51.650;17.780;2022-11-11T15:59:54;63.90;;;24.20;;
56788;SDS011;42657;51.650;17.780;2022-11-11T16:02:56;42.60;;;18.70;;
56788;SDS011;42657;51.650;17.780;2022-11-11T16:05:59;41.10;;;15.90;;
56788;SDS011;42657;51.650;17.780;2022-11-11T16:09:02;36.60;;;16.90;;
56788;SDS011;42657;51.650;17.780;2022-11-11T16:12:08;43.00;;;19.40;;
56788;SDS011;42657;51.650;17.780;2022-11-11T16:15:16;40.60;;;18.40;;
56788;SDS011;42657;51.650;17.780;2022-11-11T16:21:57;63.00;;;23.60;;
56788;SDS011;42657;51.650;17.780;2022-11-11T16:25:03;52.00;;;20.80;;
56788;SDS011;42657;51.650;17.780;2022-11-11T16:28:06;42.10;;;18.00;;
56788;SDS011;42657;51.650;17.780;2022-11-11T16:34:39;28.30;;;12.60;;
56788;SDS011;42657;51.650;17.780;2022-11-11T16:37:49;30.50;;;14.30;;
56788;SDS011;42657;51.650;17.780;2022-11-11T16:40:52;29.20;;;12.80;;
56788;SDS011;42657;51.650;17.780;2022-11-11T16:43:54;26.10;;;11.90;;
56788;SDS011;42657;51.650;17.780;2022-11-11T16:46:56;26.80;;;11.60;;
56788;SDS011;42657;51.650;17.780;2022-11-11T16:50:17;32.50;;;12.00;;
56788;SDS011;42657;51.650;17.780;2022-11-11T16:53:28;37.00;;;14.00;;
56788;SDS011;42657;51.650;17.780;2022-11-11T16:56:33;43.50;;;17.70;;
56788;SDS011;42657;51.650;17.780;2022-11-11T16:59:37;63.70;;;20.50;;
56788;SDS011;42657;51.650;17.780;2022-11-11T17:02:43;62.10;;;23.40;;
56788;SDS011;42657;51.650;17.780;2022-11-11T17:05:53;63.90;;;24.40;;
56788;SDS011;42657;51.650;17.780;2022-11-11T17:09:24;61.10;;;24.50;;
56788;SDS011;42657;51.650;17.780;2022-11-11T17:12:38;61.40;;;24.80;;
56788;SDS011;42657;51.650;17.780;2022-11-11T17:15:40;69.40;;;24.60;;
56788;SDS011;42657;51.650;17.780;2022-11-11T17:18:42;65.30;;;24.70;;
56788;SDS011;42657;51.650;17.780;2022-11-11T17:21:43;68.00;;;24.90;;
56788;SDS011;42657;51.650;17.780;2022-11-11T17:24:45;57.50;;;22.00;;
56788;SDS011;42657;51.650;17.780;2022-11-11T17:27:46;66.30;;;22.10;;
56788;SDS011;42657;51.650;17.780;2022-11-11T17:30:48;70.90;;;29.50;;
56788;SDS011;42657;51.650;17.780;2022-11-11T17:33:49;80.90;;;33.20;;
56788;SDS011;42657;51.650;17.780;2022-11-11T17:36:51;77.80;;;31.70;;
56788;SDS011;42657;51.650;17.780;2022-11-11T17:39:52;75.60;;;32.20;;
56788;SDS011;42657;51.650;17.780;2022-11-11T17:42:54;69.00;;;29.30;;
56788;SDS011;42657;51.650;17.780;2022-11-11T17:45:55;68.20;;;28.80;;
56788;SDS011;42657;51.650;17.780;2022-11-11T17:49:00;72.20;;;28.60;;
56788;SDS011;42657;51.650;17.780;2022-11-11T17:52:02;80.80;;;34.50;;
56788;SDS011;42657;51.650;17.780;2022-11-11T17:55:04;83.40;;;35.30;;
56788;SDS011;42657;51.650;17.780;2022-11-11T17:58:05;85.70;;;34.10;;
56788;SDS011;42657;51.650;17.780;2022-11-11T18:01:08;84.70;;;34.20;;
56788;SDS011;42657;51.650;17.780;2022-11-11T18:04:10;82.00;;;32.40;;
56788;SDS011;42657;51.650;17.780;2022-11-11T18:07:12;82.50;;;33.50;;
56788;SDS011;42657;51.650;17.780;2022-11-11T18:10:13;86.00;;;35.30;;
56788;SDS011;42657;51.650;17.780;2022-11-11T18:13:15;86.90;;;33.70;;
56788;SDS011;42657;51.650;17.780;2022-11-11T18:16:17;89.60;;;36.20;;
56788;SDS011;42657;51.650;17.780;2022-11-11T18:19:20;99.00;;;38.80;;
56788;SDS011;42657;51.650;17.780;2022-11-11T18:22:22;110.00;;;44.00;;
56788;SDS011;42657;51.650;17.780;2022-11-11T18:25:23;156.20;;;58.80;;
56788;SDS011;42657;51.650;17.780;2022-11-11T18:28:29;155.50;;;56.30;;
56788;SDS011;42657;51.650;17.780;2022-11-11T18:31:32;105.40;;;41.40;;
56788;SDS011;42657;51.650;17.780;2022-11-11T18:34:34;84.80;;;33.70;;
56788;SDS011;42657;51.650;17.780;2022-11-11T18:37:35;86.10;;;34.00;;
56788;SDS011;42657;51.650;17.780;2022-11-11T18:40:37;80.60;;;30.50;;
56788;SDS011;42657;51.650;17.780;2022-11-11T18:43:39;71.00;;;26.30;;
56788;SDS011;42657;51.650;17.780;2022-11-11T18:46:42;64.30;;;23.40;;
56788;SDS011;42657;51.650;17.780;2022-11-11T18:49:44;74.00;;;26.40;;
56788;SDS011;42657;51.650;17.780;2022-11-11T18:52:45;74.30;;;26.60;;
56788;SDS011;42657;51.650;17.780;2022-11-11T18:55:47;62.30;;;20.90;;
56788;SDS011;42657;51.650;17.780;2022-11-11T18:58:49;49.10;;;17.10;;
56788;SDS011;42657;51.650;17.780;2022-11-11T19:01:55;48.10;;;17.60;;
56788;SDS011;42657;51.650;17.780;2022-11-11T19:04:56;51.60;;;19.70;;
56788;SDS011;42657;51.650;17.780;2022-11-11T19:07:58;57.50;;;19.50;;
56788;SDS011;42657;51.650;17.780;2022-11-11T19:11:00;41.80;;;17.40;;
56788;SDS011;42657;51.650;17.780;2022-11-11T19:14:03;58.70;;;22.90;;
56788;SDS011;42657;51.650;17.780;2022-11-11T19:17:06;55.40;;;20.10;;
56788;SDS011;42657;51.650;17.780;2022-11-11T19:20:08;52.40;;;19.00;;
56788;SDS011;42657;51.650;17.780;2022-11-11T19:23:09;47.80;;;18.20;;
56788;SDS011;42657;51.650;17.780;2022-11-11T19:26:11;54.70;;;19.70;;
56788;SDS011;42657;51.650;17.780;2022-11-11T19:29:13;53.80;;;20.30;;
56788;SDS011;42657;51.650;17.780;2022-11-11T19:32:15;40.60;;;16.20;;
56788;SDS011;42657;51.650;17.780;2022-11-11T19:35:16;34.90;;;15.00;;
56788;SDS011;42657;51.650;17.780;2022-11-11T19:38:18;51.40;;;24.80;;
56788;SDS011;42657;51.650;17.780;2022-11-11T19:41:21;29.40;;;12.50;;
56788;SDS011;42657;51.650;17.780;2022-11-11T19:44:24;21.50;;;8.90;;
56788;SDS011;42657;51.650;17.780;2022-11-11T19:47:26;21.80;;;9.80;;
56788;SDS011;42657;51.650;17.780;2022-11-11T19:50:27;18.50;;;8.00;;
56788;SDS011;42657;51.650;17.780;2022-11-11T19:53:29;15.70;;;7.80;;
56788;SDS011;42657;51.650;17.780;2022-11-11T19:56:30;17.20;;;7.40;;
56788;SDS011;42657;51.650;17.780;2022-11-11T19:59:32;19.10;;;8.00;;
56788;SDS011;42657;51.650;17.780;2022-11-11T20:02:33;17.90;;;7.40;;
56788;SDS011;42657;51.650;17.780;2022-11-11T20:05:35;19.60;;;9.30;;
56788;SDS011;42657;51.650;17.780;2022-11-11T20:08:37;23.40;;;10.30;;
56788;SDS011;42657;51.650;17.780;2022-11-11T20:11:40;22.70;;;9.60;;
56788;SDS011;42657;51.650;17.780;2022-11-11T20:14:43;20.50;;;9.20;;